Time;durP1;ratioP1;P1;durP2;ratioP2;P2;SDS_P1;SDS_P2;PMS_P1;PMS_P2;Temp;Humidity;BMP_temperature;BMP_pressure;BME280_temperature;BME280_humidity;BME280_pressure;Samples;Min_cycle;Max_cycle;Signal;HPM_P1;HPM_P2
2022/01/03 00:01:43;;;;;;;16.35;4.88;;;9.60;95.70;;;;;;6265087;22;20011;-88
2022/01/03 00:04:09;;;;;;;15.88;3.55;;;9.60;95.70;;;;;;6217341;22;20019;-88
2022/01/03 00:06:35;;;;;;;18.45;3.70;;;9.60;95.70;;;;;;6240986;22;20023;-91
2022/01/03 00:09:01;;;;;;;15.00;3.28;;;9.60;95.70;;;;;;6239696;22;20015;-86
2022/01/03 00:11:27;;;;;;;15.00;3.50;;;9.60;95.60;;;;;;6239271;22;20027;-88
2022/01/03 00:13:53;;;;;;;18.10;4.07;;;9.60;95.60;;;;;;6239490;22;20011;-92
2022/01/03 00:16:19;;;;;;;16.27;4.15;;;9.60;95.60;;;;;;6214357;22;20025;-87
2022/01/03 00:18:47;;;;;;;17.58;3.92;;;9.70;95.70;;;;;;6242069;22;20023;-91
2022/01/03 00:21:17;;;;;;;14.98;4.38;;;9.60;95.60;;;;;;6240448;22;20400;-88
2022/01/03 00:23:53;;;;;;;15.68;4.57;;;9.70;95.60;;;;;;6239117;22;20090;-89
2022/01/03 00:26:28;;;;;;;13.57;3.88;;;9.70;95.70;;;;;;6213706;22;20069;-89
2022/01/03 00:28:58;;;;;;;13.68;3.72;;;9.70;95.60;;;;;;6238671;22;20340;-89
2022/01/03 00:31:45;;;;;;;22.73;3.70;;;9.70;95.60;;;;;;6213103;22;20012;-90
2022/01/03 00:34:12;;;;;;;12.82;4.90;;;9.70;95.60;;;;;;6241828;22;20090;-87
2022/01/03 00:36:37;;;;;;;18.55;4.05;;;9.70;95.60;;;;;;6263630;22;20444;-89
2022/01/03 00:39:07;;;;;;;18.20;3.80;;;9.70;95.60;;;;;;6241079;22;20019;-84
2022/01/03 00:41:37;;;;;;;14.27;3.75;;;9.70;95.50;;;;;;6216312;22;20015;-84
2022/01/03 00:44:03;;;;;;;18.67;4.65;;;9.70;95.50;;;;;;6216766;22;20031;-88
2022/01/03 00:46:30;;;;;;;25.05;5.97;;;9.70;95.50;;;;;;6290453;22;20043;-90
2022/01/03 00:48:55;;;;;;;17.90;3.08;;;9.70;95.50;;;;;;6239594;22;20076;-88
2022/01/03 00:51:21;;;;;;;20.15;4.93;;;9.80;95.40;;;;;;6212775;22;20019;-87
2022/01/03 00:53:51;;;;;;;18.63;3.45;;;9.80;95.40;;;;;;6214166;22;20075;-87
2022/01/03 00:56:36;;;;;;;19.13;4.22;;;9.80;95.40;;;;;;6215391;22;20023;-87
2022/01/03 00:59:13;;;;;;;18.75;3.70;;;9.80;95.40;;;;;;6215694;22;20023;-88
2022/01/03 01:01:49;;;;;;;17.77;4.18;;;9.80;95.40;;;;;;6211921;22;20019;-89
2022/01/03 01:04:16;;;;;;;17.65;4.18;;;9.80;95.40;;;;;;6213390;22;20019;-87
2022/01/03 01:06:42;;;;;;;18.38;4.05;;;9.80;95.40;;;;;;6211749;22;20371;-88
2022/01/03 01:09:11;;;;;;;19.65;3.63;;;9.80;95.40;;;;;;6237091;22;20011;-88
2022/01/03 01:11:40;;;;;;;18.60;4.22;;;9.80;95.40;;;;;;6213039;22;20030;-87
2022/01/03 01:14:05;;;;;;;21.17;3.80;;;9.80;95.40;;;;;;6262518;22;20086;-86
2022/01/03 01:16:31;;;;;;;19.20;4.13;;;9.80;95.30;;;;;;6238136;22;20019;-87
2022/01/03 01:18:57;;;;;;;15.80;3.95;;;9.80;95.30;;;;;;6237577;22;20054;-86
2022/01/03 01:21:25;;;;;;;19.25;3.58;;;9.80;95.20;;;;;;6236549;22;20337;-90
2022/01/03 01:23:52;;;;;;;15.85;4.60;;;9.80;95.20;;;;;;6238361;22;20058;-90
2022/01/03 01:29:05;;;;;;;18.33;3.95;;;9.80;95.20;;;;;;6245740;22;20022;-86
2022/01/03 01:31:34;;;;;;;18.98;3.72;;;9.80;95.10;;;;;;6288180;22;20018;-86
2022/01/03 01:34:00;;;;;;;25.00;4.18;;;9.80;95.10;;;;;;6213818;22;20026;-89
2022/01/03 01:36:28;;;;;;;19.33;3.65;;;9.80;95.10;;;;;;6212844;22;20019;-87
2022/01/03 01:39:00;;;;;;;13.23;3.72;;;9.80;95.00;;;;;;6238368;22;20023;-90
2022/01/03 01:41:26;;;;;;;19.48;4.10;;;9.80;95.00;;;;;;6239059;22;20019;-88
2022/01/03 01:43:52;;;;;;;20.02;4.70;;;9.80;95.00;;;;;;6238128;22;20341;-87
2022/01/03 01:46:19;;;;;;;16.65;3.53;;;9.80;94.90;;;;;;6236507;22;20019;-82
2022/01/03 01:48:48;;;;;;;19.73;4.28;;;9.80;95.00;;;;;;6237841;22;20065;-87
2022/01/03 01:51:15;;;;;;;20.55;3.88;;;9.90;95.00;;;;;;6238009;22;20019;-86
2022/01/03 01:53:45;;;;;;;23.63;4.60;;;9.80;94.90;;;;;;6212112;22;20026;-85
2022/01/03 01:56:21;;;;;;;18.80;3.78;;;9.90;94.90;;;;;;6213981;22;20073;-87
2022/01/03 01:59:02;;;;;;;17.67;3.92;;;9.90;94.80;;;;;;6237324;22;20352;-88
2022/01/03 02:01:57;;;;;;;15.30;4.78;;;9.90;94.80;;;;;;6237043;22;20019;-87
2022/01/03 02:04:32;;;;;;;16.48;3.53;;;9.90;94.80;;;;;;6257880;22;20045;-86
2022/01/03 02:07:07;;;;;;;16.88;3.50;;;9.90;94.70;;;;;;6238384;22;20015;-86
2022/01/03 02:10:03;;;;;;;18.85;3.13;;;9.90;94.70;;;;;;6238344;22;20102;-87
2022/01/03 02:12:29;;;;;;;16.15;3.67;;;9.90;94.70;;;;;;6259561;22;20015;-86
2022/01/03 02:14:57;;;;;;;16.85;3.75;;;9.90;94.70;;;;;;6214092;22;20022;-89
2022/01/03 02:17:24;;;;;;;15.52;3.58;;;9.80;94.70;;;;;;6213844;22;20094;-82
2022/01/03 02:20:09;;;;;;;18.10;4.15;;;9.80;94.60;;;;;;6212622;22;20015;-87
2022/01/03 02:22:36;;;;;;;18.27;3.90;;;9.80;94.60;;;;;;6237192;22;20398;-88
2022/01/03 02:25:02;;;;;;;15.75;5.05;;;9.80;94.60;;;;;;6237937;22;20023;-87
2022/01/03 02:27:28;;;;;;;14.48;3.80;;;9.80;94.60;;;;;;6211633;22;20015;-89
2022/01/03 02:29:53;;;;;;;16.63;4.50;;;9.70;94.60;;;;;;6238087;22;20030;-90
2022/01/03 02:32:19;;;;;;;24.52;3.92;;;9.80;94.60;;;;;;6239338;22;20007;-87
2022/01/03 02:34:45;;;;;;;20.20;5.38;;;9.80;94.60;;;;;;6238596;22;20264;-85
2022/01/03 02:37:11;;;;;;;16.83;4.18;;;9.70;94.60;;;;;;6239588;22;20019;-86
2022/01/03 02:39:37;;;;;;;17.38;3.72;;;9.70;94.50;;;;;;6238202;22;20023;-86
2022/01/03 02:42:03;;;;;;;15.48;4.10;;;9.70;94.60;;;;;;6214476;22;20110;-87
2022/01/03 02:44:29;;;;;;;20.30;4.38;;;9.70;94.60;;;;;;6239089;22;20068;-85
2022/01/03 02:46:54;;;;;;;15.18;3.83;;;9.70;94.60;;;;;;6239272;22;20453;-86
2022/01/03 02:49:22;;;;;;;19.90;4.32;;;9.70;94.60;;;;;;6239351;22;20071;-87
2022/01/03 02:51:48;;;;;;;22.13;4.05;;;9.70;94.60;;;;;;6239511;22;20584;-88
2022/01/03 02:54:14;;;;;;;18.23;4.38;;;9.60;94.60;;;;;;6264554;22;20046;-88
2022/01/03 02:56:41;;;;;;;21.58;4.63;;;9.60;94.60;;;;;;6238818;22;20016;-87
2022/01/03 02:59:14;;;;;;;12.60;3.50;;;9.60;94.60;;;;;;6213960;22;20043;-86
2022/01/03 03:01:44;;;;;;;19.65;4.78;;;9.60;94.60;;;;;;6238722;22;20359;-90
2022/01/03 03:04:10;;;;;;;24.20;4.03;;;9.60;94.60;;;;;;6239932;22;20523;-86
2022/01/03 03:06:35;;;;;;;19.63;4.28;;;9.60;94.60;;;;;;6238589;22;20019;-86
2022/01/03 03:09:06;;;;;;;15.82;4.63;;;9.60;94.60;;;;;;6214643;22;20015;-88
2022/01/03 03:11:36;;;;;;;19.65;4.38;;;9.60;94.60;;;;;;6215878;22;20517;-82
2022/01/03 03:14:02;;;;;;;23.33;4.72;;;9.50;94.60;;;;;;6214021;22;20011;-86
2022/01/03 03:16:28;;;;;;;19.30;5.03;;;9.50;94.60;;;;;;6214000;22;20102;-87
2022/01/03 03:18:53;;;;;;;20.70;4.55;;;9.50;94.60;;;;;;6213551;22;20015;-86
2022/01/03 03:21:19;;;;;;;21.38;5.18;;;9.50;94.60;;;;;;6261418;22;20088;-86
2022/01/03 03:23:45;;;;;;;19.75;4.47;;;9.50;94.60;;;;;;6212219;22;20068;-88
2022/01/03 03:26:11;;;;;;;20.13;4.13;;;9.50;94.60;;;;;;6263542;22;20019;-87
2022/01/03 03:28:36;;;;;;;21.73;4.38;;;9.50;94.60;;;;;;6213820;22;20255;-89
2022/01/03 03:31:02;;;;;;;21.23;4.07;;;9.40;94.60;;;;;;6214405;22;20019;-86
2022/01/03 03:33:32;;;;;;;21.95;4.72;;;9.50;94.60;;;;;;6238963;22;20011;-87
2022/01/03 03:35:58;;;;;;;21.90;4.32;;;9.40;94.60;;;;;;6215239;22;20019;-86
2022/01/03 03:38:25;;;;;;;22.15;4.32;;;9.40;94.60;;;;;;6238385;22;20582;-87
2022/01/03 03:40:57;;;;;;;22.73;5.30;;;9.50;94.70;;;;;;6238086;22;20080;-88
2022/01/03 03:43:23;;;;;;;21.27;5.07;;;9.40;94.60;;;;;;6214962;22;20098;-87
2022/01/03 03:45:51;;;;;;;20.10;4.30;;;9.40;94.60;;;;;;6238682;22;20015;-87
2022/01/03 03:48:17;;;;;;;23.27;6.72;;;9.40;94.60;;;;;;6241182;22;20019;-87
2022/01/03 03:50:44;;;;;;;21.38;4.93;;;9.40;94.60;;;;;;6239124;22;20063;-87
2022/01/03 03:53:10;;;;;;;18.77;3.53;;;9.40;94.70;;;;;;6214655;22;20049;-87
2022/01/03 03:55:37;;;;;;;29.40;5.25;;;9.50;94.60;;;;;;6239105;22;20019;-87
2022/01/03 03:58:03;;;;;;;20.75;4.60;;;9.40;94.60;;;;;;6238118;22;20015;-87
2022/01/03 04:00:28;;;;;;;25.55;4.50;;;9.40;94.60;;;;;;6238218;22;20019;-88
2022/01/03 04:02:54;;;;;;;21.30;4.43;;;9.40;94.60;;;;;;6238939;22;20098;-87
2022/01/03 04:05:20;;;;;;;16.38;3.72;;;9.40;94.60;;;;;;6217178;22;20026;-90
2022/01/03 04:07:46;;;;;;;18.35;4.00;;;9.50;94.60;;;;;;6245227;22;20015;-87
2022/01/03 04:10:14;;;;;;;18.42;3.85;;;9.50;94.60;;;;;;6248171;22;20019;-87
2022/01/03 04:12:40;;;;;;;26.38;6.10;;;9.50;94.60;;;;;;6226300;22;20019;-87
2022/01/03 04:15:06;;;;;;;27.70;4.93;;;9.50;94.60;;;;;;6277240;22;20063;-86
2022/01/03 04:17:32;;;;;;;27.38;5.78;;;9.50;94.50;;;;;;6250841;22;20022;-86
2022/01/03 04:19:57;;;;;;;21.05;3.90;;;9.50;94.50;;;;;;6268900;22;20441;-86
2022/01/03 04:22:23;;;;;;;20.75;4.43;;;9.50;94.50;;;;;;6270305;22;20042;-87
2022/01/03 04:24:49;;;;;;;22.48;4.72;;;9.50;94.50;;;;;;6221238;22;20015;-87
2022/01/03 04:27:15;;;;;;;19.23;4.03;;;9.50;94.50;;;;;;6247896;22;20019;-88
2022/01/03 04:29:41;;;;;;;20.63;5.60;;;9.50;94.50;;;;;;6274984;22;20590;-87
2022/01/03 04:32:09;;;;;;;23.20;4.85;;;9.50;94.50;;;;;;6222834;22;20057;-86
2022/01/03 04:34:35;;;;;;;20.25;5.05;;;9.50;94.50;;;;;;6217060;22;20057;-86
2022/01/03 04:37:00;;;;;;;25.48;5.53;;;9.50;94.40;;;;;;6240166;22;20015;-88
2022/01/03 04:39:26;;;;;;;15.75;4.95;;;9.50;94.40;;;;;;6215751;22;20015;-86
2022/01/03 04:41:52;;;;;;;25.67;5.10;;;9.60;94.40;;;;;;6239144;22;20015;-88
2022/01/03 04:44:18;;;;;;;28.73;4.80;;;9.60;94.40;;;;;;6240552;22;20026;-88
2022/01/03 04:46:44;;;;;;;27.73;6.07;;;9.60;94.40;;;;;;6242324;22;20015;-90
2022/01/03 04:49:09;;;;;;;25.95;5.47;;;9.60;94.40;;;;;;6239489;22;20102;-87
2022/01/03 04:51:35;;;;;;;23.38;5.30;;;9.50;94.40;;;;;;6215404;22;20071;-85
2022/01/03 04:54:01;;;;;;;21.50;5.25;;;9.60;94.40;;;;;;6244311;22;20020;-88
2022/01/03 04:56:27;;;;;;;22.73;5.05;;;9.60;94.40;;;;;;6251536;22;20016;-86
2022/01/03 04:58:56;;;;;;;25.38;5.93;;;9.60;94.40;;;;;;6253187;22;20022;-85
2022/01/03 05:01:23;;;;;;;23.88;5.55;;;9.60;94.30;;;;;;6278469;22;20019;-85
2022/01/03 05:03:49;;;;;;;20.92;5.38;;;9.60;94.30;;;;;;6252585;22;20393;-88
2022/01/03 05:06:16;;;;;;;27.50;5.28;;;9.60;94.40;;;;;;6226919;22;20018;-89
2022/01/03 05:08:42;;;;;;;22.17;4.93;;;9.60;94.30;;;;;;6249692;22;20008;-87
2022/01/03 05:11:08;;;;;;;24.77;5.40;;;9.60;94.30;;;;;;6245864;22;20090;-86
2022/01/03 05:13:34;;;;;;;28.63;5.40;;;9.60;94.30;;;;;;6214918;22;20019;-86
2022/01/03 05:16:00;;;;;;;22.83;4.88;;;9.60;94.20;;;;;;6289653;22;20019;-86
2022/01/03 05:18:26;;;;;;;26.33;5.57;;;9.60;94.20;;;;;;6263576;22;20016;-87
2022/01/03 05:20:51;;;;;;;23.13;4.63;;;9.60;94.20;;;;;;6213309;22;20019;-85
2022/01/03 05:23:20;;;;;;;24.42;5.05;;;9.60;94.30;;;;;;6263745;22;20027;-90
2022/01/03 05:25:45;;;;;;;28.92;6.15;;;9.60;94.30;;;;;;6214256;22;20023;-87
2022/01/03 05:28:11;;;;;;;23.80;5.22;;;9.60;94.20;;;;;;6213467;22;20015;-86
2022/01/03 05:30:37;;;;;;;21.58;5.68;;;9.60;94.20;;;;;;6212981;22;20098;-86
2022/01/03 05:33:03;;;;;;;26.02;5.53;;;9.50;94.20;;;;;;6264435;22;20015;-87
2022/01/03 05:35:29;;;;;;;28.17;5.97;;;9.50;94.20;;;;;;6213812;22;20456;-88
2022/01/03 05:37:55;;;;;;;21.92;5.20;;;9.50;94.20;;;;;;6213736;22;20022;-86
2022/01/03 05:40:20;;;;;;;30.08;5.03;;;9.50;94.20;;;;;;6213317;22;20049;-86
2022/01/03 05:42:46;;;;;;;25.00;4.95;;;9.50;94.20;;;;;;6212792;22;20023;-89
2022/01/03 05:45:13;;;;;;;24.42;5.72;;;9.50;94.20;;;;;;6237478;22;20042;-86
2022/01/03 05:47:44;;;;;;;25.90;5.55;;;9.50;94.20;;;;;;6237461;22;20504;-90
2022/01/03 05:50:10;;;;;;;25.23;5.28;;;9.50;94.20;;;;;;6238856;22;20125;-86
2022/01/03 05:52:37;;;;;;;22.27;5.47;;;9.50;94.20;;;;;;6234475;22;20020;-87
2022/01/03 05:55:04;;;;;;;28.90;5.82;;;9.40;94.20;;;;;;6237631;22;20023;-88
2022/01/03 05:57:29;;;;;;;28.75;5.22;;;9.40;94.20;;;;;;6237920;22;20026;-84
2022/01/03 05:59:55;;;;;;;26.08;5.40;;;9.40;94.20;;;;;;6237985;22;20019;-87
2022/01/03 06:02:21;;;;;;;29.77;6.70;;;9.40;94.30;;;;;;6235863;22;20016;-87
2022/01/03 06:04:57;;;;;;;28.67;5.60;;;9.40;94.30;;;;;;6239313;22;20023;-87
2022/01/03 06:07:22;;;;;;;31.15;5.80;;;9.40;94.30;;;;;;6266569;22;20050;-86
2022/01/03 06:09:48;;;;;;;22.88;5.15;;;9.40;94.30;;;;;;6239084;22;20384;-85
2022/01/03 06:12:16;;;;;;;20.42;5.20;;;9.40;94.40;;;;;;6263745;22;20019;-86
2022/01/03 06:14:45;;;;;;;29.10;6.63;;;9.40;94.40;;;;;;6243604;22;20160;-85
2022/01/03 06:17:11;;;;;;;31.35;5.38;;;9.40;94.40;;;;;;6214409;22;20073;-84
2022/01/03 06:19:37;;;;;;;27.42;6.30;;;9.40;94.40;;;;;;6214046;22;20027;-86
2022/01/03 06:22:03;;;;;;;30.35;6.65;;;9.40;94.40;;;;;;6214267;22;20471;-81
2022/01/03 06:24:29;;;;;;;26.13;5.88;;;9.40;94.50;;;;;;6213513;22;20098;-87
2022/01/03 06:26:54;;;;;;;30.63;6.35;;;9.40;94.40;;;;;;6214271;22;20076;-87
2022/01/03 06:29:21;;;;;;;30.77;6.55;;;9.30;94.40;;;;;;6239004;22;20114;-88
2022/01/03 06:31:47;;;;;;;31.58;7.13;;;9.30;94.70;;;;;;6215131;22;20054;-88
2022/01/03 06:34:13;;;;;;;26.48;6.20;;;9.30;94.70;;;;;;6264859;22;20015;-88
2022/01/03 06:36:41;;;;;;;27.52;6.70;;;9.30;94.40;;;;;;6263376;22;20019;-87
2022/01/03 06:39:09;;;;;;;30.17;6.15;;;9.30;94.40;;;;;;6240130;22;20038;-87
2022/01/03 06:41:38;;;;;;;30.73;5.93;;;9.30;94.40;;;;;;6241272;22;20015;-87
2022/01/03 06:44:06;;;;;;;28.13;5.43;;;9.30;94.40;;;;;;6214340;22;20403;-84
2022/01/03 06:46:32;;;;;;;27.00;6.40;;;9.30;94.40;;;;;;6212147;22;20015;-79
2022/01/03 06:49:09;;;;;;;32.30;6.63;;;9.30;94.40;;;;;;6237610;22;20015;-80
2022/01/03 06:51:37;;;;;;;32.97;6.50;;;9.30;94.40;;;;;;6212615;22;20015;-83
2022/01/03 06:54:05;;;;;;;23.42;6.30;;;9.20;94.40;;;;;;6238159;22;20019;-87
2022/01/03 06:56:31;;;;;;;30.52;9.18;;;9.30;94.50;;;;;;6238559;22;20016;-88
2022/01/03 06:58:56;;;;;;;31.00;6.20;;;9.30;94.50;;;;;;6213704;22;20020;-88
2022/01/03 07:01:27;;;;;;;34.13;8.10;;;9.30;94.50;;;;;;6239426;22;20022;-86
2022/01/03 07:03:56;;;;;;;34.42;6.45;;;9.20;94.50;;;;;;6239280;22;20016;-79
2022/01/03 07:06:25;;;;;;;29.85;6.13;;;9.20;94.60;;;;;;6241687;22;20067;-87
2022/01/03 07:08:54;;;;;;;34.13;8.52;;;9.30;94.60;;;;;;6240505;22;20015;-86
2022/01/03 07:11:23;;;;;;;27.42;7.15;;;9.30;94.90;;;;;;6241930;22;20015;-86
2022/01/03 07:18:55;;;;;;;31.88;6.50;;;9.30;94.60;;;;;;6241437;22;20090;-88
2022/01/03 07:19:38;;;;;;;35.08;7.18;;;9.20;94.60;;;;;;6248805;22;20054;-85
2022/01/03 07:22:16;;;;;;;30.45;7.10;;;9.30;94.70;;;;;;6244888;22;20326;-85
2022/01/03 07:24:42;;;;;;;36.55;7.47;;;9.30;94.70;;;;;;6219986;22;20043;-87
2022/01/03 07:27:14;;;;;;;30.80;6.53;;;9.30;94.70;;;;;;6216294;22;20079;-86
2022/01/03 07:29:50;;;;;;;;;;;;;;;;;;;;;
2022/01/03 07:32:22;;;;;;;34.72;8.60;;;9.30;94.80;;;;;;6244813;22;20016;-83
2022/01/03 07:34:48;;;;;;;35.38;6.70;;;9.40;94.80;;;;;;6267062;22;20042;-85
2022/01/03 07:37:25;;;;;;;36.85;7.13;;;9.30;94.80;;;;;;6267468;22;20452;-85
2022/01/03 07:39:54;;;;;;;34.08;7.50;;;9.40;94.80;;;;;;6243339;22;20345;-87
2022/01/03 07:42:31;;;;;;;32.00;7.93;;;9.40;94.80;;;;;;6216686;22;20055;-84
2022/01/03 07:44:59;;;;;;;30.85;7.72;;;9.50;94.80;;;;;;6220577;22;20023;-86
2022/01/03 07:47:28;;;;;;;37.97;8.30;;;9.40;94.70;;;;;;6216805;22;20508;-85
2022/01/03 07:49:54;;;;;;;33.10;7.03;;;9.40;94.70;;;;;;6266611;22;20015;-85
2022/01/03 07:52:23;;;;;;;30.23;6.53;;;9.50;94.80;;;;;;6214672;22;20050;-84
2022/01/03 07:54:55;;;;;;;38.72;7.50;;;9.50;94.70;;;;;;6215731;22;20015;-87
2022/01/03 07:57:23;;;;;;;25.23;7.15;;;9.50;94.70;;;;;;6241241;22;20098;-84
2022/01/03 07:59:55;;;;;;;32.42;7.32;;;9.50;94.70;;;;;;6265182;22;20026;-86
2022/01/03 08:02:29;;;;;;;31.88;8.13;;;9.60;94.70;;;;;;6217198;22;20015;-84
2022/01/03 08:05:02;;;;;;;35.63;7.85;;;9.60;94.60;;;;;;6244249;22;20055;-86
2022/01/03 08:07:29;;;;;;;26.65;7.07;;;9.60;94.60;;;;;;6266860;22;20019;-87
2022/01/03 08:09:55;;;;;;;35.85;7.07;;;9.60;94.60;;;;;;6216162;22;20015;-85
2022/01/03 08:12:23;;;;;;;28.02;6.25;;;9.60;94.60;;;;;;6240742;22;20055;-86
2022/01/03 08:14:58;;;;;;;32.97;6.97;;;9.70;94.60;;;;;;6241282;22;20078;-88
2022/01/03 08:17:27;;;;;;;31.30;7.50;;;9.70;94.90;;;;;;6242091;22;20441;-84
2022/01/03 08:19:52;;;;;;;29.50;6.95;;;9.70;94.50;;;;;;6266356;22;20043;-86
2022/01/03 08:22:18;;;;;;;28.80;6.30;;;9.60;94.50;;;;;;6215246;22;20337;-86
2022/01/03 08:24:47;;;;;;;36.50;6.60;;;9.70;94.50;;;;;;6215074;22;20070;-86
2022/01/03 08:27:13;;;;;;;33.13;6.93;;;9.70;94.50;;;;;;6266277;22;20015;-86
2022/01/03 08:29:56;;;;;;;25.23;5.88;;;9.80;94.40;;;;;;6214853;22;20336;-87
2022/01/03 08:32:32;;;;;;;33.97;7.35;;;9.80;94.40;;;;;;6222431;22;20020;-87
2022/01/03 08:35:01;;;;;;;29.27;6.70;;;9.80;94.40;;;;;;6243203;22;20019;-86
2022/01/03 08:37:27;;;;;;;29.58;6.10;;;9.80;94.40;;;;;;6240051;22;20077;-85
2022/01/03 08:39:53;;;;;;;31.67;7.32;;;9.90;94.40;;;;;;6240607;22;20012;-84
2022/01/03 08:42:23;;;;;;;28.15;6.95;;;9.90;94.30;;;;;;6239905;22;20019;-86
2022/01/03 08:44:56;;;;;;;29.05;6.82;;;9.80;94.20;;;;;;6240285;22;20041;-85
2022/01/03 08:47:27;;;;;;;28.98;5.95;;;9.90;94.20;;;;;;6217141;22;20049;-87
2022/01/03 08:49:56;;;;;;;30.95;7.47;;;9.90;94.20;;;;;;6241946;22;20051;-85
2022/01/03 08:52:22;;;;;;;32.13;7.35;;;9.90;94.20;;;;;;6266269;22;20015;-86
2022/01/03 08:54:50;;;;;;;29.95;6.57;;;9.90;94.20;;;;;;6239618;22;20026;-86
2022/01/03 08:57:19;;;;;;;29.65;6.45;;;9.90;94.20;;;;;;6240323;22;20049;-88
2022/01/03 08:59:45;;;;;;;26.17;6.00;;;9.90;94.20;;;;;;6240706;22;20019;-83
2022/01/03 09:02:16;;;;;;;33.15;6.35;;;10.00;94.10;;;;;;6244847;22;20015;-82
2022/01/03 09:04:50;;;;;;;32.20;6.18;;;10.00;94.10;;;;;;6269025;22;20012;-86
2022/01/03 09:07:28;;;;;;;29.42;5.70;;;10.00;94.10;;;;;;6226799;22;20034;-82
2022/01/03 09:09:54;;;;;;;27.30;6.00;;;10.10;94.00;;;;;;6243401;22;20019;-87
2022/01/03 09:12:22;;;;;;;20.02;5.68;;;10.10;94.00;;;;;;6241618;22;20022;-85
2022/01/03 09:14:49;;;;;;;20.77;4.75;;;10.10;94.00;;;;;;6240657;22;20134;-84
2022/01/03 09:17:20;;;;;;;25.55;6.15;;;10.20;94.00;;;;;;6215483;22;20019;-86
2022/01/03 09:19:51;;;;;;;30.77;7.93;;;10.20;93.90;;;;;;6267601;22;20176;-85
2022/01/03 09:22:26;;;;;;;26.77;6.10;;;10.20;93.80;;;;;;6267362;22;20023;-86
2022/01/03 09:30:09;;;;;;;30.75;6.15;;;10.30;93.60;;;;;;6247684;22;20050;-84
2022/01/03 09:32:35;;;;;;;26.33;5.75;;;10.40;93.40;;;;;;6215475;22;20054;-83
2022/01/03 09:35:01;;;;;;;27.05;7.45;;;10.40;93.40;;;;;;6215274;22;20015;-86
2022/01/03 09:37:27;;;;;;;26.85;6.80;;;10.40;93.30;;;;;;6213126;22;20071;-86
2022/01/03 09:39:54;;;;;;;24.10;5.53;;;10.50;93.20;;;;;;6213532;22;20019;-85
2022/01/03 09:42:23;;;;;;;29.00;5.75;;;10.50;93.10;;;;;;6214536;22;20044;-87
2022/01/03 09:44:50;;;;;;;23.92;5.45;;;10.50;93.10;;;;;;6239060;22;20015;-84
2022/01/03 09:47:18;;;;;;;24.80;5.65;;;10.50;93.10;;;;;;6238919;22;20450;-85
2022/01/03 09:49:44;;;;;;;22.45;6.18;;;10.50;93.00;;;;;;6213047;22;20011;-84
2022/01/03 09:52:23;;;;;;;25.60;5.32;;;10.60;93.00;;;;;;6213516;22;20337;-84
2022/01/03 09:54:59;;;;;;;29.50;6.20;;;10.60;93.00;;;;;;6216289;22;20019;-86
2022/01/03 09:57:34;;;;;;;24.83;6.18;;;10.60;92.90;;;;;;6217750;22;20015;-85
2022/01/03 10:00:06;;;;;;;35.20;6.88;;;10.70;92.80;;;;;;6238365;22;20019;-85
2022/01/03 10:02:53;;;;;;;22.35;6.60;;;10.70;92.70;;;;;;6218075;22;20113;-86
2022/01/03 10:05:22;;;;;;;30.13;5.65;;;10.70;92.50;;;;;;6239470;22;20015;-87
2022/01/03 10:07:48;;;;;;;30.27;6.47;;;10.80;92.60;;;;;;6237766;22;20026;-86
2022/01/03 10:10:16;;;;;;;21.70;6.00;;;10.80;92.60;;;;;;6239284;22;20441;-86
2022/01/03 10:12:45;;;;;;;23.85;5.57;;;10.80;92.60;;;;;;6214841;22;20026;-83
2022/01/03 10:15:13;;;;;;;21.20;5.28;;;10.80;92.50;;;;;;6214373;22;20015;-85
2022/01/03 10:17:41;;;;;;;30.67;7.30;;;10.80;92.50;;;;;;6213872;22;20072;-82
2022/01/03 10:20:10;;;;;;;31.05;6.70;;;10.80;92.40;;;;;;6213294;22;20047;-83
2022/01/03 10:22:41;;;;;;;32.33;6.90;;;10.80;92.40;;;;;;6265104;22;20094;-85
2022/01/03 10:25:29;;;;;;;;;;;;;;;;;;;;;
2022/01/03 10:28:03;;;;;;;33.30;5.78;;;10.90;92.30;;;;;;6289155;22;20015;-84
2022/01/03 10:30:40;;;;;;;28.63;5.30;;;10.90;92.20;;;;;;6235710;22;20024;-85
2022/01/03 10:33:10;;;;;;;27.27;6.20;;;10.90;92.10;;;;;;6210870;22;20157;-83
2022/01/03 10:35:41;;;;;;;26.02;5.50;;;11.00;92.10;;;;;;6211067;22;20012;-84
2022/01/03 10:38:09;;;;;;;21.83;5.10;;;11.00;92.00;;;;;;6189939;22;20037;-85
2022/01/03 10:40:38;;;;;;;32.13;6.68;;;11.00;91.90;;;;;;6222254;22;20016;-85
2022/01/03 10:43:16;;;;;;;25.52;6.85;;;11.00;91.90;;;;;;6245739;22;20012;-86
2022/01/03 10:45:50;;;;;;;27.73;6.15;;;11.00;91.90;;;;;;6215454;22;20028;-84
2022/01/03 10:48:32;;;;;;;27.45;5.82;;;11.10;91.80;;;;;;6211860;22;20018;-84
2022/01/03 10:51:00;;;;;;;26.45;6.20;;;11.10;91.60;;;;;;6237986;22;20020;-85
2022/01/03 10:53:37;;;;;;;26.33;5.68;;;11.10;91.70;;;;;;6215654;22;20012;-84
2022/01/03 10:56:44;;;;;;;30.38;6.20;;;11.20;91.70;;;;;;6195721;22;20046;-83
2022/01/03 10:59:22;;;;;;;22.67;5.43;;;11.20;91.50;;;;;;6221349;22;20020;-85
2022/01/03 11:01:58;;;;;;;28.05;5.50;;;11.30;91.50;;;;;;6237044;22;20015;-84
2022/01/03 11:04:45;;;;;;;22.42;5.60;;;11.30;91.40;;;;;;6211887;22;20031;-86
2022/01/03 11:13:11;;;;;;;24.67;5.43;;;11.40;91.10;;;;;;6265738;22;20027;-83
2022/01/03 11:15:41;;;;;;;31.38;6.75;;;11.50;91.10;;;;;;6211048;22;20358;-83
2022/01/03 11:18:08;;;;;;;23.90;5.22;;;11.50;91.20;;;;;;6210553;22;20023;-85
2022/01/03 11:20:37;;;;;;;22.85;6.50;;;11.50;91.10;;;;;;6214393;22;20046;-85
2022/01/03 11:23:02;;;;;;;26.98;6.20;;;11.50;91.10;;;;;;6192392;22;20020;-84
2022/01/03 11:25:36;;;;;;;21.50;5.30;;;11.60;91.20;;;;;;6242224;22;20030;-84
2022/01/03 11:28:03;;;;;;;22.58;6.75;;;11.60;91.00;;;;;;6220661;22;20020;-83
2022/01/03 11:30:34;;;;;;;21.50;5.93;;;11.60;91.00;;;;;;6193056;22;20026;-87
2022/01/03 11:33:00;;;;;;;28.30;5.82;;;11.60;90.80;;;;;;6195284;22;20067;-85
2022/01/03 11:35:26;;;;;;;22.48;5.18;;;11.70;90.80;;;;;;6189719;22;20073;-84
2022/01/03 11:38:03;;;;;;;25.65;5.82;;;11.80;90.60;;;;;;6186066;22;20015;-82
2022/01/03 11:40:29;;;;;;;26.70;6.47;;;11.80;90.40;;;;;;6187563;22;20094;-84
2022/01/03 11:42:58;;;;;;;25.98;6.07;;;11.90;90.40;;;;;;6234687;22;20020;-85
2022/01/03 11:45:31;;;;;;;19.20;5.60;;;12.10;90.30;;;;;;6210300;22;20020;-85
2022/01/03 11:47:57;;;;;;;22.77;5.97;;;12.30;90.10;;;;;;6212738;22;20016;-84
2022/01/03 11:50:26;;;;;;;26.98;5.97;;;12.60;89.10;;;;;;6185108;22;20012;-87
2022/01/03 11:53:20;;;;;;;22.77;5.40;;;12.80;88.60;;;;;;6236377;22;20027;-83
2022/01/03 11:56:06;;;;;;;;;;;;;;;;;;;;;
2022/01/03 12:07:22;;;;;;;28.90;6.82;;;13.90;84.70;;;;;;6124971;23;20490;-85
2022/01/03 12:09:53;;;;;;;23.80;5.67;;;14.20;84.40;;;;;;6147408;22;20023;-83
2022/01/03 12:12:33;;;;;;;20.25;5.40;;;14.40;83.30;;;;;;6207887;22;20242;-79
2022/01/03 12:15:28;;;;;;;23.45;5.93;;;14.60;82.00;;;;;;6207716;22;20019;-85
2022/01/03 12:17:55;;;;;;;29.65;6.63;;;14.80;82.20;;;;;;6195743;22;20026;-84
2022/01/03 12:20:37;;;;;;;24.95;5.72;;;15.10;80.90;;;;;;6184887;22;20098;-89
2022/01/03 12:23:07;;;;;;;;;;;15.30;79.90;;;;;;6215763;22;20026;-85
2022/01/03 12:25:54;;;;;;;23.63;6.45;;;15.40;78.00;;;;;;6210678;22;19921;-85
2022/01/03 12:28:45;;;;;;;23.42;5.60;;;15.50;79.00;;;;;;6211317;22;20016;-87
2022/01/03 12:31:16;;;;;;;22.58;5.75;;;15.70;78.20;;;;;;6189534;22;20449;-86
2022/01/03 12:34:29;;;;;;;19.25;5.35;;;15.80;77.80;;;;;;6210622;22;20141;-85
2022/01/03 12:37:19;;;;;;;21.73;5.55;;;15.70;76.40;;;;;;6090495;23;20057;-88
2022/01/03 12:40:06;;;;;;;21.50;5.18;;;15.50;76.90;;;;;;6258216;22;20460;-84
2022/01/03 12:45:43;;;;;;;;;;;;;;;;;;;;;
2022/01/03 12:48:23;;;;;;;25.17;5.45;;;15.20;78.40;;;;;;6239652;22;20012;-84
2022/01/03 12:51:14;;;;;;;;;;;;;;;;;;;;;
2022/01/03 12:53:55;;;;;;;22.83;5.50;;;15.10;77.90;;;;;;6258638;22;20067;-86
2022/01/03 12:56:30;;;;;;;21.88;4.82;;;14.90;78.20;;;;;;6211812;22;20039;-85
2022/01/03 12:59:22;;;;;;;;;;;;;;;;;;;;;
2022/01/03 13:01:57;;;;;;;27.90;5.93;;;14.70;77.90;;;;;;6215177;22;20070;-88
2022/01/03 13:04:24;;;;;;;22.30;6.55;;;14.60;78.40;;;;;;6185626;22;20019;-87
2022/01/03 13:07:08;;;;;;;28.02;6.75;;;14.50;78.80;;;;;;6202906;22;20015;-87
2022/01/03 13:09:42;;;;;;;20.15;5.70;;;14.30;78.10;;;;;;6184073;22;20410;-89
2022/01/03 13:12:47;;;;;;;26.25;5.95;;;14.10;79.40;;;;;;6185358;22;20099;-88
2022/01/03 13:15:42;;;;;;;22.23;6.25;;;13.90;78.90;;;;;;6220769;22;20507;-87
2022/01/03 13:18:27;;;;;;;24.00;7.28;;;13.90;79.60;;;;;;6211510;22;20015;-88
2022/01/03 13:21:15;;;;;;;;;;;;;;;;;;;;;
2022/01/03 13:24:32;;;;;;;24.33;6.43;;;14.30;79.20;;;;;;6220755;22;20015;-86
2022/01/03 13:27:01;;;;;;;22.52;5.80;;;14.50;78.10;;;;;;6207789;22;20019;-91
2022/01/03 13:30:04;;;;;;;23.42;6.40;;;14.60;78.00;;;;;;6247273;22;20030;-91
2022/01/03 13:32:50;;;;;;;;;;;;;;;;;;;;;
2022/01/03 13:40:11;;;;;;;23.52;5.47;;;14.60;77.60;;;;;;6196042;22;20020;-91
2022/01/03 13:43:00;;;;;;;25.70;5.60;;;14.70;76.30;;;;;;6187808;22;20051;-90
2022/01/03 13:49:22;;;;;;;26.90;5.20;;;14.70;77.50;;;;;;6230099;22;20263;-92